Home > Products > Valid Products > TAF

000
FTUS44 KMOB 240500
TAFPNS
TAF
KPNS 240535Z 2406/2506 22003KT P6SM SKC
      TEMPO 2409/2412 1SM BR
     FM241500 18010KT P6SM FEW040 SCT250=



000
FTUS44 KMOB 240500
TAFMOB
TAF
KMOB 240535Z 2406/2506 00000KT P6SM FEW070
      TEMPO 2409/2412 1SM BR
     FM241500 19008KT P6SM FEW040 SCT250=



000
FTUS44 KMOB 232300
TAFMOB
TAF
KMOB 232320Z 2400/2424 20009KT P6SM FEW025
     FM240600 00000KT 4SM BR SKC
      TEMPO 2409/2412 1SM BR
     FM241300 15004KT P6SM FEW040 SCT250=



000
FTUS44 KMOB 232300
TAFPNS
TAF
KPNS 232320Z 2400/2424 21010KT P6SM SKC
     FM240600 00000KT 4SM BR SKC
      TEMPO 2409/2412 1SM BR
     FM241300 12004KT P6SM FEW040 SCT250=



000
FTUS44 KMOB 231700
TAFMOB
TAF
KMOB 231733Z 2318/2418 01004KT P6SM SCT050
     FM232200 21006KT P6SM FEW050
     FM240600 00000KT 4SM BR SKC
      TEMPO 2409/2412 1SM BR
     FM241300 15004KT P6SM FEW040 SCT250=



000
FTUS44 KMOB 231700
TAFPNS
TAF
KPNS 231733Z 2318/2418 02007KT P6SM SCT035
     FM232100 20009KT P6SM FEW035
     FM240600 00000KT 4SM BR SKC
      TEMPO 2409/2412 1SM BR
     FM241300 12004KT P6SM FEW040 SCT250=



000
FTUS44 KMOB 231200 AAA
TAFPNS
TAF AMD
KPNS 231218Z 2312/2412 35004KT 4SM BR SKC
      TEMPO 2312/2313 1/2SM FG
     FM231800 15006KT P6SM SCT035
     FM240200 VRB03KT P6SM SKC=



000
FTUS44 KMOB 231200 AAA
TAFMOB
TAF AMD
KMOB 231218Z 2312/2412 00000KT 3SM BR FEW200
      TEMPO 2312/2313 1/2SM FG
     FM231800 15006KT P6SM SCT035
     FM240200 VRB03KT P6SM SKC=



000
FTUS44 KMOB 231100
TAFPNS
TAF
KPNS 231124Z 2312/2412 34006KT 4SM BR SKC
      TEMPO 2312/2313 1/2SM FG
     FM231800 15006KT P6SM SCT035
     FM240200 VRB03KT P6SM SKC=



000
FTUS44 KMOB 231100
TAFMOB
TAF
KMOB 231124Z 2312/2412 32003KT P6SM BCFG FEW003 FEW200
      TEMPO 2312/2313 1/2SM FG
     FM231800 15006KT P6SM SCT035
     FM240200 VRB03KT P6SM SKC=



000
FTUS44 KMOB 230500
TAFPNS
TAF
KPNS 230534Z 2306/2406 31005KT 5SM BR SKC
      TEMPO 2309/2313 2SM BR
     FM231800 15006KT P6SM SCT035
     FM240200 VRB03KT P6SM SKC=



000
FTUS44 KMOB 230500
TAFMOB
TAF
KMOB 230534Z 2306/2406 33003KT 6SM BR SKC
      TEMPO 2309/2313 2SM BR
     FM231800 15006KT P6SM SCT035
     FM240200 VRB03KT P6SM SKC=



000
FTUS44 KMOB 222300
TAFMOB
TAF
KMOB 222320Z 2300/2324 32006KT P6SM FEW025 SCT060
      TEMPO 2300/2303 -SHRA BKN025
     FM230400 32003KT P6SM SCT025
      TEMPO 2309/2313 2SM BR
     FM232000 15006KT P6SM SCT035=



000
FTUS44 KMOB 222300
TAFPNS
TAF
KPNS 222320Z 2300/2324 22013KT P6SM FEW025 SCT050
      TEMPO 2301/2304 -SHRA BKN025
     FM230600 34003KT P6SM SCT025
      TEMPO 2309/2313 2SM BR
     FM232000 15006KT P6SM SCT035=



000
FTUS44 KMOB 221900 AAA
TAFPNS
TAF AMD
KPNS 221953Z 2220/2318 19012KT P6SM SCT040
      TEMPO 2223/2303 -SHRA SCT040 BKN060
     FM230600 34003KT P6SM SCT025=



000
FTUS44 KMOB 221900 AAA
TAFMOB
TAF AMD
KMOB 221952Z 2220/2318 29008KT P6SM SCT040 BKN060
      TEMPO 2222/2302 -SHRA
     FM230300 32003KT P6SM SCT025=



000
FTUS44 KMOB 221700
TAFPNS
TAF
KPNS 221726Z 2218/2318 25008KT P6SM FEW021
     FM222000 25007KT P6SM BKN010 OVC025
      TEMPO 2223/2303 -SHRA
     FM230600 34003KT P6SM SCT025=



000
FTUS44 KMOB 221700
TAFMOB
TAF
KMOB 221726Z 2218/2318 25007KT P6SM SCT025
     FM221900 25007KT P6SM BKN010 OVC025
      TEMPO 2222/2302 -SHRA
     FM230300 32003KT P6SM SCT025=



000
FTUS44 KMOB 221100 RRA
TAFPNS
TAF
KPNS 221144Z 2212/2312 30004KT P6SM SCT050 SCT250
     FM221500 25009KT P6SM VCSH BKN050
     FM230900 33004KT 4SM BR SCT050 BKN250=



000
FTUS44 KMOB 221100 RRA
TAFMOB
TAF
KMOB 221144Z 2212/2312 29003KT P6SM BCFG SCT050 SCT250
     FM221500 25009KT P6SM VCSH BKN050
     FM230600 33003KT 4SM BR SCT050 BKN250=



000
FTUS44 KMOB 220900 AAA
TAFPNS
TAF AMD
KPNS 220929Z 2209/2306 32004KT P6SM SKC
      TEMPO 2210/2212 1SM BR
     FM221500 25009KT P6SM BKN050
     FM230100 25010KT P6SM SKC=



000
FTUS44 KMOB 220500
TAFPNS
TAF
KPNS 220534Z 2206/2306 28006KT P6SM SKC
     FM220900 29004KT 4SM BR OVC007
      TEMPO 2210/2212 1SM BR
     FM221500 25009KT P6SM BKN050
     FM230100 25010KT P6SM SKC=



000
FTUS44 KMOB 220500
TAFMOB
TAF
KMOB 220534Z 2206/2306 27003KT P6SM FEW200
     FM220900 21003KT 4SM BR OVC007
      TEMPO 2210/2212 1SM BR
     FM221500 25009KT P6SM BKN050
     FM230100 25010KT P6SM SKC=



000
FTUS44 KMOB 212300
TAFPNS
TAF
KPNS 212322Z 2200/2224 21007KT P6SM SKC
     FM220900 29004KT 4SM BR OVC007
      TEMPO 2210/2212 1SM BR
     FM221800 25009KT P6SM BKN030=



000
FTUS44 KMOB 212300
TAFMOB
TAF
KMOB 212322Z 2200/2224 20006KT P6SM SCT030 BKN040
     FM220900 21003KT 4SM BR OVC007
      TEMPO 2210/2212 1SM BR
     FM221800 25009KT P6SM BKN030=



000
FTUS44 KMOB 211700
TAFMOB
TAF
KMOB 211727Z 2118/2218 13011KT P6SM SCT030
     FM220900 21003KT 4SM BR OVC007
      TEMPO 2210/2212 1SM BR=



000
FTUS44 KMOB 211700
TAFPNS
TAF
KPNS 211727Z 2118/2218 15008KT P6SM FEW030
     FM220900 29004KT 4SM BR OVC007
      TEMPO 2210/2212 1SM BR=



000
FTUS44 KMOB 211200 AAA
TAFPNS
TAF AMD
KPNS 211244Z 2113/2212 34004KT 4SM BR SKC
     FM211400 14008KT P6SM SCT025 SCT250
     FM220900 27003KT 4SM BR SCT250=



000
FTUS44 KMOB 211200 AAA
TAFMOB
TAF AMD
KMOB 211242Z 2113/2212 00000KT P6SM FEW200
     FM211400 12006KT P6SM SCT030 BKN250
     FM212100 17007KT P6SM SCT250=



000
FTUS44 KMOB 211200 RRA
TAFMOB
TAF
KMOB 211241Z 2113/2212 00000KT P6SM BCFG FEW200
     FM211400 12006KT P6SM SCT030 BKN250
     FM212100 17007KT P6SM SCT250=



000
FTUS44 KMOB 211200 RRA
TAFPNS
TAF
KPNS 211241Z 2113/2212 34003KT P6SM SKC
     FM211400 14008KT P6SM SCT025 SCT250
     FM212100 17007KT P6SM SCT250=



    US Dept of Commerce
    National Oceanic and Atmospheric Administration
    National Weather Service
    1325 East West Highway
    Silver Spring, MD 20910
    Page Author: NWS Internet Services Team
Disclaimer
Information Quality
Credits
Glossary
Privacy Policy
Freedom of Information Act (FOIA)
About Us
Career Opportunities